Flight Track Log - Related Links

Times and Time Zones

All times are in EDT time to prevent confusion due to time zone crossing. See the AWE1425 flight status page for this flight to view local times or setup timezone preferences in your user account.

Time Position Orientation Groundspeed Altitude Reporting Facility
EDT Latitude Longitude Course Direction KTS MPH feet Rate Location/Type
Sun 02:02:49 PM 32.3667 -64.6833 287° West 402 463 1,500  Level New York Oceanic (ODAPS)
Sun 02:04:00 PM 32.4612 -65.0594 290° West  Level FlightAware Approximate
Sun 02:05:00 PM 32.4980 -65.1919 287° West  Level FlightAware Approximate
Sun 02:05:55 PM 32.3667 -64.6833 287° West 403 464 10,000  Level New York Oceanic (ODAPS)
Sun 02:06:00 PM 32.5315 -65.3258 287° West  Level FlightAware Approximate
Sun 02:07:00 PM 32.5617 -65.4608 285° West  Level FlightAware Approximate
Sun 02:08:00 PM 32.5917 -65.5959 285° West  Level FlightAware Approximate
Sun 02:08:50 PM 32.3667 -64.6833 287° West 372 428 10,000  Level New York Oceanic (ODAPS)
Sun 02:09:00 PM 32.6329 -65.7278 287° West 402 463 1,500 7,273 Descending FlightAware Transoceanic
Sun 02:09:56 PM 32.3667 -64.6833 287° West 372 428 18,000  Climbing New York Oceanic (ODAPS)
Sun 02:10:00 PM 32.6656 -65.8588 286° West 402 463 1,500 -15,469 Descending FlightAware Transoceanic
Sun 02:11:00 PM 32.6981 -65.9898 286° West 402 463 1,500 4,250 Level FlightAware Transoceanic
Sun 02:12:00 PM 32.7174 -66.0676 286° West 403 464 10,000 14,022 Climbing FlightAware Transoceanic
Sun 02:12:32 PM 32.3667 -64.6833 287° West 372 428 23,000  Climbing New York Oceanic (ODAPS)
Sun 02:13:00 PM 32.7485 -66.1939 286° West 403 464 10,000 -8,864 Descending FlightAware Transoceanic
Sun 02:14:00 PM 32.7795 -66.3204 286° West 403 464 10,000  Level FlightAware Transoceanic
Sun 02:15:00 PM 32.7805 -66.3248 286° West 372 428 10,000 4,000 Level FlightAware Transoceanic
Sun 02:16:00 PM 32.8093 -66.4426 286° West 372 428 18,000 4,000 Climbing FlightAware Transoceanic
Sun 02:17:00 PM 32.8379 -66.5605 286° West 372 428 18,000 2,500 Level FlightAware Transoceanic
Sun 02:18:00 PM 32.8664 -66.6785 286° West 372 428 23,000 2,500 Climbing FlightAware Transoceanic
Sun 02:19:00 PM 32.8949 -66.7965 286° West 372 428 23,000  Level FlightAware Transoceanic
Sun 02:20:00 PM 32.9231 -66.9146 286° West 372 428 23,000  Level FlightAware Transoceanic
Sun 02:21:00 PM 32.9513 -67.0328 286° West 372 428 23,000  Level FlightAware Transoceanic
Sun 02:22:00 PM 32.9794 -67.1511 286° West 372 428 23,000  Level FlightAware Transoceanic
Sun 02:23:00 PM 33.0074 -67.2695 286° West 372 428 23,000  Level FlightAware Transoceanic
Sun 02:24:00 PM 33.0352 -67.3879 286° West 372 428 23,000  Level FlightAware Transoceanic
Sun 02:25:00 PM 33.0630 -67.5064 286° West 372 428 23,000  Level FlightAware Transoceanic
Sun 02:26:00 PM 33.0906 -67.6250 286° West 372 428 23,000  Level FlightAware Transoceanic
Sun 02:27:00 PM 33.1181 -67.7436 285° West 372 428 23,000  Level FlightAware Transoceanic
Sun 02:28:00 PM 33.1455 -67.8623 285° West 372 428 23,000  Level FlightAware Transoceanic
Sun 02:29:00 PM 33.1728 -67.9811 285° West 372 428 23,000  Level FlightAware Transoceanic
Sun 02:30:00 PM 33.2000 -68.1000 323° Northwest 372 428 23,000  Level FlightAware Transoceanic
Sun 02:31:00 PM 33.3014 -68.1898 323° Northwest 372 428 23,000  Level FlightAware Transoceanic
Sun 02:32:00 PM 33.4027 -68.2798 323° Northwest 372 428 23,000  Level FlightAware Transoceanic
Sun 02:33:00 PM 33.5040 -68.3701 323° Northwest 372 428 23,000 6,316 Level FlightAware Transoceanic
Sun 02:33:16 PM 33.2000 -68.1000 323° Northwest 443 510 31,000  Climbing New York Oceanic (ODAPS)
Sun 02:34:00 PM 33.6052 -68.4605 323° Northwest 372 428 23,000 -4,615 Descending FlightAware Transoceanic
Sun 02:35:00 PM 33.7064 -68.5512 323° Northwest 372 428 23,000  Level FlightAware Transoceanic
Sun 02:36:00 PM 33.8075 -68.6420 323° Northwest 372 428 23,000  Level FlightAware Transoceanic
Sun 02:37:00 PM 33.9085 -68.7331 323° Northwest 372 428 23,000  Level FlightAware Transoceanic
Sun 02:38:00 PM 34.0094 -68.8244 323° Northwest 372 428 23,000 4,000 Level FlightAware Transoceanic
Sun 02:39:00 PM 34.0094 -68.8244 323° Northwest 443 510 31,000 4,000 Climbing FlightAware Transoceanic
Sun 02:40:00 PM 34.1103 -68.9159 323° Northwest 443 510 31,000  Level FlightAware Transoceanic
Sun 02:41:00 PM 34.2111 -69.0077 323° Northwest 443 510 31,000  Level FlightAware Transoceanic
Sun 02:42:00 PM 34.3118 -69.0996 323° Northwest 443 510 31,000  Level FlightAware Transoceanic
Sun 02:43:00 PM 34.4125 -69.1918 323° Northwest 443 510 31,000  Level FlightAware Transoceanic
Sun 02:44:00 PM 34.5131 -69.2842 323° Northwest 443 510 31,000  Level FlightAware Transoceanic
Sun 02:45:00 PM 34.6136 -69.3768 323° Northwest 443 510 31,000  Level FlightAware Transoceanic
Sun 02:46:00 PM 34.7141 -69.4697 323° Northwest 443 510 31,000  Level FlightAware Transoceanic
Sun 02:47:00 PM 34.8145 -69.5628 323° Northwest 443 510 31,000  Level FlightAware Transoceanic
Sun 02:48:00 PM 34.9148 -69.6561 323° Northwest 443 510 31,000  Level FlightAware Transoceanic
Sun 02:49:00 PM 35.0151 -69.7496 323° Northwest 443 510 31,000  Level FlightAware Transoceanic
Sun 02:50:00 PM 35.1152 -69.8433 323° Northwest 443 510 31,000  Level FlightAware Transoceanic
Sun 02:51:00 PM 35.2153 -69.9373 322° Northwest 443 510 31,000  Level FlightAware Transoceanic
Sun 02:52:00 PM 35.3154 -70.0315 322° Northwest 443 510 31,000  Level FlightAware Transoceanic
Sun 02:53:00 PM 35.4153 -70.1260 322° Northwest 443 510 31,000  Level FlightAware Transoceanic
Sun 02:54:00 PM 35.5152 -70.2207 322° Northwest 443 510 31,000  Level FlightAware Transoceanic
Sun 02:55:00 PM 35.6150 -70.3156 322° Northwest 443 510 31,000  Level FlightAware Transoceanic
Sun 02:56:00 PM 35.7148 -70.4108 322° Northwest 443 510 31,000  Level FlightAware Transoceanic
Sun 02:57:00 PM 35.8144 -70.5062 322° Northwest 443 510 31,000 517 Level FlightAware Transoceanic
Sun 02:57:56 PM 35.7667 -70.4500 322° Northwest 443 510 32,000  Climbing New York Oceanic (ODAPS)
Sun 02:58:00 PM 35.9140 -70.6018 322° Northwest 443 510 31,000 -938 Descending FlightAware Transoceanic
Sun 02:59:00 PM 36.0135 -70.6977 322° Northwest 443 510 31,000  Level FlightAware Transoceanic
Sun 03:00:00 PM 36.1129 -70.7938 322° Northwest 443 510 31,000  Level FlightAware Transoceanic
Sun 03:01:00 PM 36.2123 -70.8902 322° Northwest 443 510 31,000  Level FlightAware Transoceanic
Sun 03:02:00 PM 36.3116 -70.9868 322° Northwest 443 510 31,000  Level FlightAware Transoceanic
Sun 03:03:00 PM 36.4108 -71.0836 322° Northwest 443 510 31,000 500 Level FlightAware Transoceanic
Sun 03:04:00 PM 36.4399 -71.1061 322° Northwest 443 510 32,000 500 Climbing FlightAware Transoceanic
Sun 03:05:00 PM 36.5357 -71.2008 322° Northwest 443 510 32,000  Level FlightAware Transoceanic
Sun 03:06:00 PM 36.6315 -71.2957 321° Northwest 443 510 32,000  Level FlightAware Transoceanic
Sun 03:07:00 PM 36.7273 -71.3908 321° Northwest 443 510 32,000  Level FlightAware Transoceanic
Sun 03:08:00 PM 36.8229 -71.4862 321° Northwest 443 510 32,000  Level FlightAware Transoceanic
Sun 03:09:00 PM 36.9185 -71.5818 321° Northwest 443 510 32,000  Level FlightAware Transoceanic
Sun 03:10:00 PM 37.0140 -71.6777 321° Northwest 443 510 32,000  Level FlightAware Transoceanic
Sun 03:10:05 PM 37.0350 -71.6875 321° Northwest 450 518 32,000  Level New York Center
Sun 03:11:00 PM 37.1094 -71.7738 321° Northwest 443 510 32,000 -98 Level FlightAware Transoceanic
Sun 03:11:06 PM 37.1361 -71.7878 322° Northwest 458 527 31,900  Descending New York Center
Sun 03:12:00 PM 37.2047 -71.8701 321° Northwest 443 510 32,000  Climbing FlightAware Transoceanic
Sun 03:12:06 PM 37.2147 -71.8697 320° Northwest 453 521 31,900  Descending New York Center
Sun 03:13:06 PM 37.3239 -72.0047 315° West 447 514 32,000 50 Climbing New York Center
Sun 03:14:07 PM 37.4039 -72.1211 311° West 447 514 32,000  Level New York Center
Sun 03:15:07 PM 37.4903 -72.2353 314° West 447 514 32,000 -51 Level New York Center
Sun 03:16:05 PM 37.5719 -72.3522 311° West 447 514 31,900 -102 Descending New York Center
Sun 03:17:05 PM 37.6394 -72.4586 309° West 441 507 31,800 -545 Descending New York Center
Sun 03:18:06 PM 37.7314 -72.5814 313° West 441 507 30,800 -942 Descending New York Center
Sun 03:19:06 PM 37.8131 -72.6967 312° West 442 509 29,900 -942 Descending New York Center
Sun 03:20:07 PM 37.8922 -72.8172 310° West 437 503 28,900 -992 Descending New York Center
Sun 03:21:07 PM 37.9800 -72.9278 315° West 437 503 27,900 -1,008 Descending New York Center
Sun 03:22:06 PM 38.0611 -73.0383 313° West 442 509 26,900 -1,160 Descending New York Center
Sun 03:23:06 PM 38.1339 -73.1542 309° West 430 495 25,600 -1,388 Descending New York Center
Sun 03:24:07 PM 38.2133 -73.2519 316° Northwest 413 475 24,100 -1,488 Descending New York Center
Sun 03:25:07 PM 38.2839 -73.3600 310° West 400 460 22,600 -1,525 Descending New York Center
Sun 03:26:05 PM 38.3547 -73.4606 312° West 388 447 21,100 -1,547 Descending New York Center
Sun 03:28:17 PM 38.5036 -73.6656 313° West 366 421 17,700 -1,523 Descending Washington Center
Sun 03:29:18 PM 38.5697 -73.7542 314° West 356 410 16,200 -850 Descending Washington Center
Sun 03:30:17 PM 38.6253 -73.8511 306° West 351 404 16,000 -100 Descending Washington Center
Sun 03:31:18 PM 38.6747 -73.9536 302° West 343 395 16,000 -397 Level Washington Center
Sun 03:32:18 PM 38.7406 -74.0400 314° West 338 389 15,200 -1,017 Descending Washington Center
Sun 03:33:16 PM 38.8125 -74.1211 319° Northwest 338 389 14,000 -958 Descending Washington Center
Sun 03:34:17 PM 38.8822 -74.2022 318° Northwest 338 389 13,300 -885 Descending Washington Center
Sun 03:35:18 PM 38.9478 -74.2786 318° Northwest 328 377 12,200 -1,140 Descending Washington Center
Sun 03:36:18 PM 39.0153 -74.3547 319° Northwest 323 372 11,000 -600 Descending Washington Center
Sun 03:37:18 PM 39.0806 -74.4311 318° Northwest 318 366 11,000  Level Washington Center
Sun 03:38:16 PM 39.1458 -74.5078 318° Northwest 318 366 11,000 -102 Level Washington Center
Sun 03:39:16 PM 39.2133 -74.5844 319° Northwest 318 366 10,800 -714 Descending Washington Center
Sun 03:41:04 PM 39.3167 -74.7167 315° West 268 308 9,000 -643 Descending Philadelphia TRACON
Sun 03:42:04 PM 39.3667 -74.7667 322° Northwest 272 313 9,000  Level Philadelphia TRACON
Sun 03:43:05 PM 39.4333 -74.8333 322° Northwest 267 307 9,000  Level Philadelphia TRACON
Sun 03:44:04 PM 39.4833 -74.9000 314° West 268 308 9,000 -454 Level Philadelphia TRACON
Sun 03:45:04 PM 39.5500 -74.9333 339° North 283 326 8,100 -1,140 Descending Philadelphia TRACON
Sun 03:46:05 PM 39.6333 -74.9500 351° North 277 319 6,700 -1,167 Descending Philadelphia TRACON
Sun 03:46:52 PM 39.6833 -74.9333 14° North 261 300 6,000 -478 Descending Philadelphia TRACON
Sun 03:47:58 PM 39.7667 -74.9167 North 258 297 5,800 -595 Descending Philadelphia TRACON
Sun 03:48:53 PM 39.8333 -74.9167 360° North 219 252 4,800 -939 Descending Philadelphia TRACON
Sun 03:49:53 PM 39.8667 -74.9667 311° West 183 211 4,000 -1,000 Descending Philadelphia TRACON
Sun 03:50:53 PM 39.8833 -75.0167 293° West 171 197 2,800 -1,200 Descending Philadelphia TRACON

Login

Don't have an account? Register now (free) for customized features, flight alerts, and more!